Time;durP1;ratioP1;P1;durP2;ratioP2;P2;SDS_P1;SDS_P2;PMS_P1;PMS_P2;Temp;Humidity;BMP_temperature;BMP_pressure;BME280_temperature;BME280_humidity;BME280_pressure;Samples;Min_cycle;Max_cycle;Signal;HPM_P1;HPM_P2
2022/09/27 00:01:15;;;;;;;0.10;0.10;;;;;;;5.35;98.47;99411.13;5046719;28;20060;-80
2022/09/27 00:03:43;;;;;;;0.10;0.10;;;;;;;5.34;98.49;99409.47;5025970;28;20049;-81
2022/09/27 00:06:13;;;;;;;0.10;0.10;;;;;;;5.33;98.61;99405.13;5043239;28;20075;-80
2022/09/27 00:08:39;;;;;;;0.10;0.10;;;;;;;5.36;98.74;99403.81;5048304;28;20095;-80
2022/09/27 00:11:08;;;;;;;0.00;0.00;;;;;;;5.35;98.74;99407.59;5028142;28;20508;-80
2022/09/27 00:13:34;;;;;;;0.10;0.10;;;;;;;5.32;98.65;99410.81;5043388;28;20049;-80
2022/09/27 00:16:04;;;;;;;0.13;0.05;;;;;;;5.25;98.86;99417.22;5045275;28;20080;-79
2022/09/27 00:18:31;;;;;;;0.10;0.10;;;;;;;5.24;98.87;99410.16;5044125;28;20045;-80
2022/09/27 00:21:05;;;;;;;0.17;0.15;;;;;;;5.21;99.00;99409.81;5041921;28;20255;-80
2022/09/27 00:23:32;;;;;;;0.10;0.10;;;;;;;5.17;99.04;99416.81;5043646;28;21012;-79
2022/09/27 00:25:58;;;;;;;0.10;0.10;;;;;;;5.01;99.07;99392.19;5047367;28;20748;-79
2022/09/27 00:28:25;;;;;;;0.10;0.10;;;;;;;5.19;99.31;99411.97;5027695;28;20085;-80
2022/09/27 00:30:52;;;;;;;0.10;0.10;;;;;;;5.18;99.47;99404.91;5045298;28;20147;-80
2022/09/27 00:33:19;;;;;;;0.10;0.10;;;;;;;5.21;99.59;99405.25;5023785;28;20326;-79
2022/09/27 00:35:48;;;;;;;0.10;0.10;;;;;;;5.16;99.45;99413.31;5043131;28;20059;-79
2022/09/27 00:38:16;;;;;;;0.10;0.10;;;;;;;5.05;99.43;99408.78;5060142;28;20055;-77
2022/09/27 00:40:42;;;;;;;0.10;0.10;;;;;;;5.06;99.36;99416.66;5063771;28;20411;-77
2022/09/27 00:43:15;;;;;;;0.10;0.10;;;;;;;5.06;99.70;99415.84;5067053;28;20087;-79
2022/09/27 00:45:43;;;;;;;0.20;0.20;;;;;;;5.00;99.51;99409.53;5049628;28;20518;-79
2022/09/27 00:48:14;;;;;;;0.10;0.10;;;;;;;5.01;99.55;99413.88;5046402;28;20049;-77
2022/09/27 00:50:45;;;;;;;0.15;0.10;;;;;;;5.00;99.60;99422.28;5027497;28;20416;-77
2022/09/27 00:53:18;;;;;;;0.10;0.10;;;;;;;4.97;99.76;99424.38;5044610;28;20049;-77
2022/09/27 00:55:50;;;;;;;0.10;0.10;;;;;;;4.94;99.84;99432.22;5045771;28;20053;-76
2022/09/27 00:58:20;;;;;;;0.10;0.10;;;;;;;4.92;99.86;99418.91;5032999;28;20043;-77
2022/09/27 01:00:51;;;;;;;0.20;0.10;;;;;;;4.94;100.00;99424.06;5064707;28;20132;-78
2022/09/27 01:03:25;;;;;;;0.10;0.10;;;;;;;4.94;100.00;99426.78;5062272;28;20102;-77
2022/09/27 01:05:52;;;;;;;0.10;0.10;;;;;;;4.91;99.99;99428.09;5065077;28;20056;-78
2022/09/27 01:08:19;;;;;;;0.13;0.10;;;;;;;4.92;100.00;99420.78;5061038;28;20048;-77
2022/09/27 01:10:59;;;;;;;0.13;0.13;;;;;;;4.96;100.00;99425.44;5063996;28;20667;-78
2022/09/27 01:13:34;;;;;;;0.10;0.10;;;;;;;4.97;100.00;99423.56;5061965;28;20210;-78
2022/09/27 01:16:09;;;;;;;0.10;0.10;;;;;;;4.97;100.00;99421.66;5064655;28;20175;-77
2022/09/27 01:18:45;;;;;;;0.10;0.10;;;;;;;4.86;100.00;99400.09;5064534;28;20106;-78
2022/09/27 01:21:31;;;;;;;0.10;0.10;;;;;;;4.95;100.00;99423.00;5028395;28;20049;-76
2022/09/27 01:24:26;;;;;;;0.10;0.10;;;;;;;4.90;100.00;99431.03;5045778;28;20144;-77
2022/09/27 01:27:25;;;;;;;0.10;0.10;;;;;;;4.85;100.00;99420.13;5042806;28;20052;-79
2022/09/27 01:30:12;;;;;;;0.10;0.10;;;;;;;4.85;100.00;99423.66;5032362;28;20053;-78
2022/09/27 01:32:49;;;;;;;0.10;0.10;;;;;;;4.86;100.00;99410.94;5041469;28;20049;-80
2022/09/27 01:35:24;;;;;;;0.10;0.10;;;;;;;4.82;100.00;99407.88;5053343;28;20057;-79
2022/09/27 01:38:02;;;;;;;0.08;0.08;;;;;;;4.89;100.00;99405.84;5034215;28;20048;-80
2022/09/27 01:40:36;;;;;;;0.10;0.10;;;;;;;4.92;100.00;99416.19;5044336;28;20045;-81
2022/09/27 01:43:25;;;;;;;0.10;0.10;;;;;;;4.92;100.00;99407.25;5042931;28;20040;-81
2022/09/27 01:45:57;;;;;;;0.10;0.10;;;;;;;4.92;100.00;99413.47;5042117;28;20106;-79
2022/09/27 01:48:57;;;;;;;0.10;0.10;;;;;;;4.89;100.00;99407.72;5043224;28;20049;-81
2022/09/27 01:51:29;;;;;;;0.10;0.10;;;;;;;4.84;100.00;99413.91;5046433;28;20057;-80
2022/09/27 01:54:00;;;;;;;0.10;0.10;;;;;;;4.79;100.00;99416.50;5041702;28;20037;-80
2022/09/27 01:56:49;;;;;;;0.10;0.10;;;;;;;4.70;100.00;99409.88;5045008;28;20106;-80
2022/09/27 01:59:28;;;;;;;0.10;0.10;;;;;;;4.74;100.00;99409.13;5045895;28;20053;-81
2022/09/27 02:02:23;;;;;;;0.00;0.00;;;;;;;4.73;100.00;99410.19;5045555;28;20060;-80
2022/09/27 02:05:22;;;;;;;0.10;0.10;;;;;;;4.72;100.00;99407.72;5030757;28;20529;-80
2022/09/27 02:07:57;;;;;;;0.10;0.10;;;;;;;4.73;100.00;99412.09;5012160;28;20107;-80
2022/09/27 02:10:28;;;;;;;0.10;0.10;;;;;;;4.69;100.00;99400.91;5024785;28;20045;-79
2022/09/27 02:13:01;;;;;;;0.10;0.10;;;;;;;4.76;100.00;99417.00;5036621;28;20044;-81
2022/09/27 02:15:33;;;;;;;0.10;0.10;;;;;;;4.74;100.00;99417.25;5048527;28;20084;-78
2022/09/27 02:18:27;;;;;;;0.05;0.05;;;;;;;4.77;100.00;99413.22;5061499;28;20048;-79
2022/09/27 02:20:57;;;;;;;0.20;0.20;;;;;;;4.72;100.00;99415.88;5063106;28;20079;-80
2022/09/27 02:23:32;;;;;;;0.10;0.10;;;;;;;4.66;100.00;99407.63;5063005;28;20040;-75
2022/09/27 02:26:13;;;;;;;0.05;0.05;;;;;;;4.66;100.00;99409.53;5063108;28;20053;-76
2022/09/27 02:28:45;;;;;;;0.10;0.10;;;;;;;4.64;100.00;99417.09;5046499;28;20052;-77
2022/09/27 02:31:17;;;;;;;0.10;0.10;;;;;;;4.63;100.00;99418.16;5042668;28;20057;-78
2022/09/27 02:33:49;;;;;;;0.20;0.10;;;;;;;4.67;100.00;99414.69;5059873;28;20052;-77
2022/09/27 02:36:19;;;;;;;0.10;0.10;;;;;;;4.60;100.00;99407.78;5040036;28;20110;-77
2022/09/27 02:38:46;;;;;;;0.10;0.10;;;;;;;4.49;100.00;99404.94;5042652;28;20127;-77
2022/09/27 02:41:16;;;;;;;0.10;0.10;;;;;;;4.49;100.00;99420.34;5008859;28;20553;-77
2022/09/27 02:43:43;;;;;;;;;;;;;;;4.44;100.00;99417.53;5045102;28;20049;-77
2022/09/27 02:46:24;;;;;;;0.45;0.20;;;;;;;4.39;100.00;99426.38;5021193;28;19971;-77
2022/09/27 02:49:03;;;;;;;0.10;0.10;;;;;;;4.34;100.00;99423.59;5020060;28;20148;-77
2022/09/27 02:51:42;;;;;;;0.20;0.20;;;;;;;4.30;100.00;99425.97;5020439;28;20055;-77
2022/09/27 02:54:18;;;;;;;0.10;0.10;;;;;;;4.23;100.00;99418.00;5023067;28;20049;-80
2022/09/27 02:57:14;;;;;;;0.13;0.13;;;;;;;4.23;100.00;99426.09;5057971;28;20048;-79
2022/09/27 03:00:06;;;;;;;0.00;0.00;;;;;;;4.22;100.00;99427.16;5060901;28;20059;-80
2022/09/27 03:02:58;;;;;;;0.10;0.10;;;;;;;4.19;100.00;99422.25;5030079;28;20507;-80
2022/09/27 03:05:38;;;;;;;0.10;0.10;;;;;;;4.26;100.00;99424.81;5060052;28;20056;-79
2022/09/27 03:08:06;;;;;;;0.10;0.10;;;;;;;4.26;100.00;99420.19;5033511;28;20040;-77
2022/09/27 03:10:32;;;;;;;;;;;;;;;4.27;100.00;99429.16;5063850;28;20072;-77
2022/09/27 03:12:58;;;;;;;0.10;0.10;;;;;;;4.26;100.00;99424.81;5046935;28;20395;-78
2022/09/27 03:15:25;;;;;;;0.10;0.10;;;;;;;4.25;100.00;99421.28;5064639;28;20050;-77
2022/09/27 03:18:03;;;;;;;0.10;0.10;;;;;;;4.27;100.00;99431.88;5042564;28;20432;-79
2022/09/27 03:20:43;;;;;;;0.10;0.10;;;;;;;4.29;100.00;99435.16;5024191;28;20161;-79
2022/09/27 03:23:11;;;;;;;0.10;0.10;;;;;;;4.28;100.00;99435.38;5022471;28;20041;-80
2022/09/27 03:25:37;;;;;;;0.10;0.10;;;;;;;4.28;100.00;99429.97;5025047;28;20053;-79
2022/09/27 03:28:03;;;;;;;0.10;0.10;;;;;;;4.29;100.00;99439.72;5040492;28;20072;-80
2022/09/27 03:30:30;;;;;;;0.35;0.10;;;;;;;4.33;100.00;99435.50;5010054;28;20049;-79
2022/09/27 03:32:57;;;;;;;0.10;0.10;;;;;;;4.39;100.00;99435.34;5009271;28;20444;-80
2022/09/27 03:35:41;;;;;;;0.10;0.10;;;;;;;4.42;100.00;99425.91;5010260;28;20279;-79
2022/09/27 03:38:09;;;;;;;0.10;0.10;;;;;;;4.44;100.00;99433.78;5001090;28;20041;-79
2022/09/27 03:40:36;;;;;;;0.10;0.10;;;;;;;4.42;100.00;99436.72;5024549;28;20073;-79
2022/09/27 03:43:04;;;;;;;0.13;0.13;;;;;;;4.35;100.00;99427.94;5007871;28;20064;-80
2022/09/27 03:45:32;;;;;;;0.10;0.10;;;;;;;4.35;100.00;99436.06;5021907;28;20060;-79
2022/09/27 03:48:00;;;;;;;0.20;0.10;;;;;;;4.34;100.00;99437.13;5024503;28;20277;-80
2022/09/27 03:50:27;;;;;;;0.10;0.10;;;;;;;4.33;100.00;99439.00;5047044;28;20051;-77
2022/09/27 03:52:53;;;;;;;0.10;0.10;;;;;;;4.33;100.00;99439.00;5034706;28;20060;-76
2022/09/27 03:55:22;;;;;;;0.10;0.10;;;;;;;4.29;100.00;99437.03;5032267;28;20045;-77
2022/09/27 03:57:48;;;;;;;0.10;0.10;;;;;;;4.27;100.00;99431.88;5007221;28;20536;-78
2022/09/27 04:00:16;;;;;;;0.10;0.10;;;;;;;4.29;100.00;99432.44;5040862;28;20079;-77
2022/09/27 04:02:42;;;;;;;0.55;0.10;;;;;;;4.34;100.00;99435.22;5040898;28;20060;-77
2022/09/27 04:05:20;;;;;;;0.10;0.10;;;;;;;4.36;100.00;99435.81;5036521;28;20592;-77
2022/09/27 04:07:48;;;;;;;0.10;0.10;;;;;;;4.40;100.00;99445.13;5047155;28;20045;-77
2022/09/27 04:10:16;;;;;;;0.10;0.10;;;;;;;4.45;100.00;99446.25;5047355;28;20041;-78
2022/09/27 04:12:44;;;;;;;0.10;0.10;;;;;;;4.58;100.00;99450.53;5038487;28;20079;-76
2022/09/27 04:15:11;;;;;;;0.10;0.10;;;;;;;4.67;100.00;99440.97;5063244;28;20052;-76
2022/09/27 04:17:50;;;;;;;0.10;0.10;;;;;;;4.76;100.00;99441.38;5050320;28;20049;-80
2022/09/27 04:20:32;;;;;;;0.10;0.10;;;;;;;4.85;100.00;99447.22;5041209;28;20032;-80
2022/09/27 04:23:00;;;;;;;0.10;0.10;;;;;;;4.92;100.00;99451.41;5030150;28;20056;-77
2022/09/27 04:25:26;;;;;;;0.10;0.10;;;;;;;4.92;100.00;99443.28;5035085;28;20060;-77
2022/09/27 04:27:57;;;;;;;0.17;0.17;;;;;;;5.01;100.00;99438.25;5023772;28;20056;-77
2022/09/27 04:30:25;;;;;;;0.20;0.20;;;;;;;5.07;100.00;99450.84;5025059;28;20090;-77
2022/09/27 04:33:09;;;;;;;0.13;0.13;;;;;;;5.12;99.39;99452.78;5053162;28;20045;-78
2022/09/27 04:38:48;;;;;;;0.10;0.10;;;;;;;5.24;98.80;99450.00;5042621;28;20582;-77
2022/09/27 04:41:20;;;;;;;0.20;0.20;;;;;;;5.28;98.41;99453.88;5047760;28;20052;-80
2022/09/27 04:43:48;;;;;;;0.20;0.20;;;;;;;5.39;98.14;99458.38;5041937;28;20049;-78
2022/09/27 04:46:15;;;;;;;0.10;0.10;;;;;;;5.47;97.57;99454.41;5025132;28;20528;-78
2022/09/27 04:48:41;;;;;;;0.10;0.10;;;;;;;5.52;97.03;99454.47;5026240;28;20084;-78
2022/09/27 04:51:09;;;;;;;0.55;0.20;;;;;;;5.58;96.38;99463.50;5039034;28;20080;-77
2022/09/27 04:53:36;;;;;;;0.20;0.20;;;;;;;5.66;95.83;99457.66;5024639;28;20049;-78
2022/09/27 04:56:05;;;;;;;0.20;0.20;;;;;;;5.72;95.31;99444.97;5023520;28;20428;-78
2022/09/27 04:58:33;;;;;;;0.10;0.10;;;;;;;5.81;95.02;99457.03;5031653;28;20103;-78
2022/09/27 05:01:02;;;;;;;0.10;0.10;;;;;;;5.91;94.23;99453.63;5024859;28;20049;-77
2022/09/27 05:03:52;;;;;;;0.17;0.17;;;;;;;6.01;93.66;99461.09;5031163;28;20053;-77
2022/09/27 05:06:18;;;;;;;0.10;0.10;;;;;;;5.99;93.09;99463.22;5030359;28;20559;-77
2022/09/27 05:08:45;;;;;;;0.10;0.10;;;;;;;6.00;92.85;99469.47;5009291;28;20045;-77
2022/09/27 05:11:17;;;;;;;0.30;0.20;;;;;;;6.02;92.92;99461.94;5032666;28;20052;-77
2022/09/27 05:14:03;;;;;;;0.10;0.10;;;;;;;6.08;92.65;99458.22;5056579;28;20052;-77
2022/09/27 05:16:32;;;;;;;0.13;0.13;;;;;;;6.19;92.27;99454.53;5061633;28;20047;-78
2022/09/27 05:19:16;;;;;;;0.20;0.20;;;;;;;6.32;91.75;99456.03;5061071;28;20059;-78
2022/09/27 05:22:06;;;;;;;0.10;0.10;;;;;;;6.42;91.29;99458.03;5044986;28;20538;-78
2022/09/27 05:24:32;;;;;;;0.20;0.20;;;;;;;6.52;90.80;99454.59;5053228;28;20512;-78
2022/09/27 05:27:01;;;;;;;0.20;0.20;;;;;;;6.58;90.43;99453.59;5025494;28;20257;-81
2022/09/27 05:29:27;;;;;;;;;;;;;;;6.69;90.22;99453.66;5015225;28;20068;-79
2022/09/27 05:32:07;;;;;;;0.20;0.20;;;;;;;6.69;89.91;99442.81;5044225;28;20517;-77
2022/09/27 05:34:33;;;;;;;0.10;0.10;;;;;;;6.81;89.50;99452.44;5012012;28;20513;-77
2022/09/27 05:37:00;;;;;;;0.28;0.20;;;;;;;6.78;89.34;99443.97;5011725;28;20073;-77
2022/09/27 05:39:30;;;;;;;0.28;0.20;;;;;;;6.86;89.42;99448.94;5033401;28;20057;-79
2022/09/27 05:41:56;;;;;;;0.10;0.10;;;;;;;6.93;89.35;99455.00;5014422;28;20059;-80
2022/09/27 05:44:24;;;;;;;0.20;0.20;;;;;;;7.04;89.07;99449.66;5024650;28;20552;-79
2022/09/27 05:47:00;;;;;;;0.10;0.10;;;;;;;7.19;88.60;99449.75;5037660;28;20052;-79
2022/09/27 05:49:28;;;;;;;0.20;0.20;;;;;;;7.37;88.22;99439.53;5016699;28;20401;-78
2022/09/27 05:51:55;;;;;;;0.10;0.10;;;;;;;7.59;87.58;99435.84;5015698;28;20402;-78
2022/09/27 05:54:23;;;;;;;0.15;0.15;;;;;;;7.74;87.25;99440.56;5036180;28;20049;-78
2022/09/27 05:56:50;;;;;;;0.10;0.10;;;;;;;7.94;86.30;99442.53;5024593;28;20501;-78
2022/09/27 05:59:33;;;;;;;0.20;0.20;;;;;;;8.13;85.66;99442.09;5023296;28;20103;-78
2022/09/27 06:02:18;;;;;;;0.30;0.20;;;;;;;8.36;84.79;99438.06;5031095;28;20049;-79
2022/09/27 06:05:06;;;;;;;0.22;0.20;;;;;;;8.54;83.94;99441.41;5037633;28;20314;-77
2022/09/27 06:07:41;;;;;;;0.13;0.13;;;;;;;8.80;83.33;99439.50;5038419;28;20073;-78
2022/09/27 06:10:16;;;;;;;0.20;0.20;;;;;;;9.00;82.08;99427.78;5054314;28;20051;-78
2022/09/27 06:12:42;;;;;;;0.20;0.20;;;;;;;9.19;81.29;99432.69;5058501;28;20056;-78
2022/09/27 06:15:21;;;;;;;0.20;0.20;;;;;;;9.27;80.67;99428.59;5046350;28;20568;-78
2022/09/27 06:17:47;;;;;;;0.20;0.20;;;;;;;9.28;80.61;99422.03;5048309;28;20083;-77
2022/09/27 06:20:17;;;;;;;0.20;0.20;;;;;;;9.28;80.29;99430.22;5060000;28;20550;-77
2022/09/27 06:22:45;;;;;;;0.20;0.20;;;;;;;9.18;80.35;99418.22;5065374;28;20052;-78
2022/09/27 06:25:12;;;;;;;0.20;0.20;;;;;;;9.49;80.23;99445.44;5065895;28;20053;-77
2022/09/27 06:28:17;;;;;;;0.20;0.20;;;;;;;9.73;79.10;99439.41;5065478;28;20132;-77
2022/09/27 06:30:47;;;;;;;0.20;0.20;;;;;;;9.90;78.53;99430.06;5045790;28;20052;-78
2022/09/27 06:33:24;;;;;;;0.20;0.20;;;;;;;10.02;77.47;99424.25;5065066;28;20532;-78
2022/09/27 06:35:54;;;;;;;0.20;0.20;;;;;;;10.23;76.65;99429.63;5061571;28;20053;-79
2022/09/27 06:38:20;;;;;;;0.20;0.20;;;;;;;10.40;75.85;99430.09;5065396;28;20052;-78
2022/09/27 06:41:01;;;;;;;0.20;0.20;;;;;;;10.57;75.13;99432.44;5031948;28;20098;-78
2022/09/27 06:43:38;;;;;;;0.20;0.20;;;;;;;10.79;74.41;99423.00;5064760;28;20503;-78
2022/09/27 06:46:13;;;;;;;0.20;0.20;;;;;;;11.06;73.44;99421.69;5065574;28;20048;-78
2022/09/27 06:49:00;;;;;;;0.32;0.20;;;;;;;11.01;72.09;99425.28;5066723;28;20052;-77
2022/09/27 06:51:27;;;;;;;0.13;0.13;;;;;;;10.54;72.97;99422.09;5061101;28;20056;-78
2022/09/27 06:53:53;;;;;;;;;;;;;;;10.33;73.79;99429.56;5063446;28;20090;-78
2022/09/27 06:56:20;;;;;;;0.20;0.20;;;;;;;10.13;74.68;99422.28;5059004;28;19924;-78
2022/09/27 07:01:41;;;;;;;0.20;0.20;;;;;;;10.11;75.44;99430.78;5056427;28;20093;-76
2022/09/27 07:04:17;;;;;;;0.20;0.20;;;;;;;10.37;74.73;99427.88;5064024;28;20041;-77
2022/09/27 07:06:54;;;;;;;0.20;0.20;;;;;;;10.64;73.35;99426.66;5043969;28;20068;-77
2022/09/27 07:09:22;;;;;;;0.73;0.40;;;;;;;10.63;72.47;99425.03;5044650;28;20072;-77
2022/09/27 07:11:49;;;;;;;0.30;0.30;;;;;;;10.71;72.80;99418.13;5040408;28;20143;-77
2022/09/27 07:14:16;;;;;;;0.20;0.20;;;;;;;10.81;72.65;99418.06;5039114;28;20539;-77
2022/09/27 07:16:44;;;;;;;0.25;0.20;;;;;;;10.74;72.67;99418.41;5059815;28;20056;-77
2022/09/27 07:19:12;;;;;;;0.80;0.30;;;;;;;10.58;72.97;99425.06;5041479;28;20049;-77
2022/09/27 07:21:38;;;;;;;0.30;0.30;;;;;;;10.48;73.43;99424.03;5038312;28;20072;-77
2022/09/27 07:24:06;;;;;;;0.30;0.30;;;;;;;10.41;74.09;99426.28;5042866;28;20213;-77
2022/09/27 07:26:32;;;;;;;0.20;0.20;;;;;;;10.41;73.82;99434.47;5046927;28;20053;-77
2022/09/27 07:29:00;;;;;;;0.20;0.20;;;;;;;10.35;73.97;99430.09;5049321;28;20044;-77
2022/09/27 07:31:28;;;;;;;0.75;0.25;;;;;;;10.25;74.13;99421.97;5050682;28;20090;-77
2022/09/27 07:33:55;;;;;;;0.30;0.30;;;;;;;10.15;73.77;99426.38;5048620;28;20045;-77
2022/09/27 07:36:21;;;;;;;0.40;0.40;;;;;;;10.75;72.27;99424.66;5060173;28;20102;-77
2022/09/27 07:38:47;;;;;;;0.20;0.20;;;;;;;11.42;69.30;99421.34;5048450;28;20063;-77
2022/09/27 07:41:18;;;;;;;0.65;0.30;;;;;;;11.38;68.91;99414.81;5032867;28;20045;-77
2022/09/27 07:43:48;;;;;;;0.20;0.20;;;;;;;11.61;68.06;99420.59;5047365;28;20111;-78
2022/09/27 07:46:14;;;;;;;0.45;0.30;;;;;;;11.47;67.47;99423.19;5030320;28;20052;-78
2022/09/27 07:49:12;;;;;;;0.35;0.35;;;;;;;11.95;66.14;99427.06;5038165;28;20512;-78
2022/09/27 07:51:57;;;;;;;0.32;0.30;;;;;;;12.02;65.10;99428.38;5048141;28;20520;-79
2022/09/27 07:54:46;;;;;;;0.20;0.20;;;;;;;12.74;62.38;99428.44;5048081;28;20122;-79
2022/09/27 07:57:31;;;;;;;0.30;0.30;;;;;;;12.68;61.54;99418.69;5046202;28;20064;-78
2022/09/27 08:00:00;;;;;;;0.20;0.20;;;;;;;12.33;62.14;99422.47;5049118;28;20045;-78
2022/09/27 08:02:27;;;;;;;0.30;0.30;;;;;;;11.97;63.06;99419.38;5031638;28;20049;-78
2022/09/27 08:04:53;;;;;;;0.30;0.30;;;;;;;12.21;62.43;99427.56;5012589;28;20038;-78
2022/09/27 08:07:21;;;;;;;0.30;0.30;;;;;;;12.72;61.49;99414.22;5042220;28;20385;-78
2022/09/27 08:09:51;;;;;;;0.30;0.30;;;;;;;12.99;60.52;99426.41;5066543;28;20503;-77
2022/09/27 08:12:20;;;;;;;0.20;0.20;;;;;;;13.41;58.95;99424.56;5046796;28;20481;-78
2022/09/27 08:14:48;;;;;;;0.30;0.30;;;;;;;13.03;59.33;99416.47;5052103;28;20471;-78
2022/09/27 08:17:16;;;;;;;0.40;0.40;;;;;;;13.62;58.71;99421.47;5060756;28;20044;-79
2022/09/27 08:20:05;;;;;;;0.40;0.40;;;;;;;14.91;55.13;99415.13;5050388;28;20052;-78
2022/09/27 08:22:50;;;;;;;0.40;0.40;;;;;;;15.16;52.67;99418.34;5061731;28;20045;-79
2022/09/27 08:25:52;;;;;;;0.40;0.40;;;;;;;15.86;51.22;99415.91;5037091;28;20555;-79
2022/09/27 08:28:33;;;;;;;0.45;0.45;;;;;;;16.79;48.78;99423.34;5041282;28;20051;-80
2022/09/27 08:31:11;;;;;;;0.40;0.40;;;;;;;17.20;48.02;99403.81;5049457;28;20049;-79
2022/09/27 08:33:37;;;;;;;;;;;;;;;17.71;46.62;99414.97;5029642;28;20041;-79
2022/09/27 08:36:03;;;;;;;0.40;0.40;;;;;;;17.94;45.55;99414.72;5030348;28;19924;-79
2022/09/27 08:38:30;;;;;;;0.30;0.30;;;;;;;17.01;47.58;99410.50;5033172;28;20080;-79
2022/09/27 08:41:01;;;;;;;0.30;0.30;;;;;;;16.40;49.13;99414.88;5050461;28;20094;-79
2022/09/27 08:43:36;;;;;;;0.40;0.40;;;;;;;15.85;50.28;99406.00;5065038;28;20428;-78
2022/09/27 08:46:18;;;;;;;0.63;0.60;;;;;;;15.85;50.87;99413.47;5063536;28;20075;-79
2022/09/27 08:48:51;;;;;;;0.60;0.60;;;;;;;16.69;48.98;99409.84;5046593;28;20432;-79
2022/09/27 08:51:25;;;;;;;0.40;0.40;;;;;;;17.49;46.51;99407.78;5056541;28;20064;-79
2022/09/27 08:53:55;;;;;;;0.50;0.50;;;;;;;17.31;47.15;99402.28;5031129;28;20048;-79
2022/09/27 08:56:23;;;;;;;0.30;0.30;;;;;;;17.35;46.91;99403.28;5049378;28;20056;-79
2022/09/27 08:58:57;;;;;;;0.30;0.30;;;;;;;17.46;46.60;99408.44;5059407;28;20048;-80
2022/09/27 09:01:32;;;;;;;0.40;0.40;;;;;;;16.58;48.15;99406.63;5064479;28;20052;-79
2022/09/27 09:04:09;;;;;;;0.30;0.30;;;;;;;15.49;50.14;99408.97;5042204;28;20048;-79
2022/09/27 09:06:42;;;;;;;0.35;0.32;;;;;;;14.57;51.98;99408.19;5026279;28;20061;-78
2022/09/27 09:09:23;;;;;;;0.30;0.30;;;;;;;13.98;53.46;99414.44;5044273;28;20052;-78
2022/09/27 09:15:20;;;;;;;0.30;0.30;;;;;;;13.84;54.30;99412.53;5027022;28;20045;-78
2022/09/27 09:18:03;;;;;;;0.40;0.40;;;;;;;14.02;54.41;99419.00;5042991;28;20052;-77
2022/09/27 09:20:57;;;;;;;0.30;0.30;;;;;;;14.06;53.42;99410.97;5046039;28;20054;-77
2022/09/27 09:23:43;;;;;;;0.30;0.30;;;;;;;13.82;53.17;99419.44;5045539;28;20048;-77
2022/09/27 09:26:16;;;;;;;0.47;0.40;;;;;;;13.80;52.68;99403.25;5046548;28;20064;-77
2022/09/27 09:28:55;;;;;;;0.38;0.38;;;;;;;13.60;52.91;99409.97;5029983;28;20563;-77
2022/09/27 09:31:33;;;;;;;0.65;0.38;;;;;;;13.38;53.85;99408.69;5045835;28;20118;-77
2022/09/27 09:34:07;;;;;;;0.30;0.30;;;;;;;13.07;54.57;99405.69;5048689;28;20202;-77
2022/09/27 09:36:41;;;;;;;0.30;0.30;;;;;;;12.86;55.34;99403.28;5044882;28;20152;-77
2022/09/27 09:39:13;;;;;;;0.30;0.30;;;;;;;12.72;55.59;99397.75;5048492;28;20055;-77
2022/09/27 09:41:48;;;;;;;0.43;0.30;;;;;;;12.71;54.51;99401.63;5047940;28;20111;-80
2022/09/27 09:44:20;;;;;;;0.30;0.30;;;;;;;12.71;54.55;99401.63;5030236;28;20512;-80
2022/09/27 09:46:50;;;;;;;0.30;0.30;;;;;;;12.87;54.46;99399.44;5044507;28;20059;-81
2022/09/27 09:49:22;;;;;;;1.00;1.00;;;;;;;13.92;53.48;99402.75;5028195;28;20079;-79
2022/09/27 09:51:55;;;;;;;0.50;0.50;;;;;;;16.44;47.73;99395.75;5027261;28;20072;-79
2022/09/27 09:54:30;;;;;;;0.30;0.30;;;;;;;17.34;46.47;99401.66;5046354;28;20131;-80
2022/09/27 09:57:03;;;;;;;0.30;0.30;;;;;;;16.58;47.50;99401.09;5044951;28;20072;-80
2022/09/27 09:59:37;;;;;;;0.30;0.30;;;;;;;15.53;49.54;99396.16;5044486;28;20132;-80
2022/09/27 10:02:19;;;;;;;1.10;1.10;;;;;;;14.87;52.36;99390.16;5028658;28;20102;-80
2022/09/27 10:04:48;;;;;;;1.00;1.00;;;;;;;17.13;46.50;99391.31;5045935;28;20049;-79
2022/09/27 10:07:17;;;;;;;1.00;1.00;;;;;;;18.60;40.83;99385.63;5025594;28;20075;-80
2022/09/27 10:09:44;;;;;;;1.20;1.10;;;;;;;19.51;39.35;99389.59;5040998;28;20051;-80
2022/09/27 10:12:40;;;;;;;1.10;1.10;;;;;;;20.77;36.79;99391.84;5025786;28;20457;-81
2022/09/27 10:15:12;;;;;;;1.10;1.10;;;;;;;21.61;35.43;99391.25;5047261;28;20517;-80
2022/09/27 10:17:41;;;;;;;0.90;0.90;;;;;;;22.17;34.92;99386.59;5046794;28;20053;-80
2022/09/27 10:20:23;;;;;;;0.30;0.30;;;;;;;21.98;33.00;99379.84;5024005;28;20144;-80
2022/09/27 10:22:54;;;;;;;1.30;1.20;;;;;;;21.28;33.45;99384.06;5028558;28;20068;-79
2022/09/27 10:25:47;;;;;;;1.10;1.10;;;;;;;21.25;33.13;99386.41;5026189;28;20056;-81
2022/09/27 10:28:36;;;;;;;1.20;1.20;;;;;;;21.84;32.08;99380.28;5027534;28;20044;-80
2022/09/27 10:31:05;;;;;;;1.10;1.10;;;;;;;22.46;30.71;99387.22;5026814;28;20049;-79
2022/09/27 10:33:38;;;;;;;1.10;1.10;;;;;;;22.92;30.43;99392.97;5041978;28;20427;-80
2022/09/27 10:36:22;;;;;;;1.20;1.15;;;;;;;23.18;29.00;99371.13;5012030;28;20722;-80
2022/09/27 10:38:52;;;;;;;1.20;1.20;;;;;;;22.97;28.88;99383.50;5046191;28;20049;-79
2022/09/27 10:41:32;;;;;;;1.20;1.10;;;;;;;23.27;28.64;99379.28;5048310;28;20052;-80
2022/09/27 10:44:18;;;;;;;;;;;;;;;23.72;28.31;99363.69;5044867;28;20052;-80
2022/09/27 10:46:50;;;;;;;1.20;1.20;;;;;;;23.97;27.76;99362.44;5046359;28;19925;-80
2022/09/27 10:50:01;;;;;;;1.30;1.20;;;;;;;24.42;27.53;99357.88;5065036;28;20045;-81
2022/09/27 10:52:39;;;;;;;1.20;1.20;;;;;;;25.01;26.11;99359.34;5039014;28;20151;-80
2022/09/27 10:55:19;;;;;;;1.30;1.20;;;;;;;25.41;26.12;99359.72;5033314;28;20091;-81
2022/09/27 10:57:49;;;;;;;1.30;1.20;;;;;;;25.60;25.45;99351.13;5018420;28;20045;-80
2022/09/27 11:00:23;;;;;;;1.40;1.30;;;;;;;25.74;25.54;99360.81;5064377;28;20047;-81
2022/09/27 11:02:53;;;;;;;1.30;1.20;;;;;;;25.80;24.89;99348.06;5065131;28;20143;-80
2022/09/27 11:05:32;;;;;;;0.43;0.43;;;;;;;24.90;26.54;99359.25;5065014;28;20048;-80
2022/09/27 11:08:02;;;;;;;0.40;0.40;;;;;;;22.17;30.98;99362.38;5042389;28;20471;-80
2022/09/27 11:10:42;;;;;;;0.30;0.30;;;;;;;20.27;34.32;99355.13;5045084;28;20135;-80
2022/09/27 11:13:11;;;;;;;;;;;;;;;18.91;36.42;99351.13;5047879;28;20084;-80
2022/09/27 11:16:02;;;;;;;0.30;0.30;;;;;;;17.36;39.09;99357.09;5045433;28;19928;-79
2022/09/27 11:18:39;;;;;;;0.30;0.30;;;;;;;16.49;40.80;99354.19;5046634;28;20147;-79
2022/09/27 11:21:18;;;;;;;0.30;0.30;;;;;;;15.84;42.46;99349.28;5044486;28;20056;-79
2022/09/27 11:24:06;;;;;;;0.75;0.75;;;;;;;17.65;40.15;99364.63;5029914;28;20052;-79
2022/09/27 11:26:44;;;;;;;0.38;0.38;;;;;;;17.85;39.47;99354.72;5044258;28;20064;-79
2022/09/27 11:29:25;;;;;;;0.35;0.35;;;;;;;16.73;41.30;99333.56;5062134;28;20044;-79
2022/09/27 11:32:24;;;;;;;0.30;0.30;;;;;;;15.95;42.56;99346.22;5051163;28;20049;-80
2022/09/27 11:35:20;;;;;;;0.50;0.50;;;;;;;15.57;43.35;99329.09;5032345;28;20079;-80
2022/09/27 11:37:59;;;;;;;0.30;0.30;;;;;;;15.76;44.06;99339.03;5050907;28;20151;-80
2022/09/27 11:40:34;;;;;;;1.27;1.20;;;;;;;15.89;44.43;99348.31;5019747;28;20187;-79
2022/09/27 11:43:17;;;;;;;1.10;1.10;;;;;;;17.29;41.53;99341.03;5028682;28;20049;-79
2022/09/27 11:45:56;;;;;;;0.30;0.30;;;;;;;17.35;41.00;99338.91;5029256;28;20111;-80
2022/09/27 11:48:39;;;;;;;0.30;0.30;;;;;;;16.48;42.73;99332.47;5029111;28;20087;-79
2022/09/27 11:51:19;;;;;;;0.30;0.30;;;;;;;15.94;43.85;99326.13;5028525;28;20054;-79
2022/09/27 11:54:04;;;;;;;1.40;1.30;;;;;;;16.98;43.08;99315.31;5020190;28;20501;-79
2022/09/27 11:56:43;;;;;;;1.40;1.30;;;;;;;20.56;35.92;99317.06;5046790;28;20053;-79
2022/09/27 11:59:30;;;;;;;0.30;0.30;;;;;;;22.22;32.91;99317.53;5058888;28;20048;-81
2022/09/27 12:02:12;;;;;;;0.30;0.30;;;;;;;20.87;34.31;99323.06;5047962;28;20056;-80
2022/09/27 12:04:55;;;;;;;0.30;0.30;;;;;;;19.18;36.71;99325.94;5031547;28;20148;-79
2022/09/27 12:07:34;;;;;;;0.30;0.30;;;;;;;17.78;39.96;99324.06;5050056;28;20053;-79
2022/09/27 12:10:08;;;;;;;0.30;0.30;;;;;;;16.95;41.32;99320.66;5049656;28;20045;-78
2022/09/27 12:12:40;;;;;;;0.32;0.32;;;;;;;16.21;42.82;99326.94;5046225;28;20049;-78
2022/09/27 12:15:15;;;;;;;1.40;1.30;;;;;;;17.23;41.61;99323.03;5056992;28;20052;-77
2022/09/27 12:17:44;;;;;;;0.40;0.40;;;;;;;17.94;39.08;99318.72;5065984;28;20048;-77
2022/09/27 12:20:20;;;;;;;0.30;0.30;;;;;;;17.12;41.44;99301.31;5068894;28;20052;-78